Time;durP1;ratioP1;P1;durP2;ratioP2;P2;SDS_P1;SDS_P2;PMS_P1;PMS_P2;Temp;Humidity;BMP_temperature;BMP_pressure;BME280_temperature;BME280_humidity;BME280_pressure;Samples;Min_cycle;Max_cycle;Signal;HPM_P1;HPM_P2
2022/04/23 00:00:14;;;;;;;;;;;;;;;;;;4980837;28;19917;-66
2022/04/23 00:02:42;;;;;;;;;;;;;;;;;;4982062;28;20340;-66
2022/04/23 00:05:08;;;;;;;;;;;;;;;;;;4991740;28;20746;-66
2022/04/23 00:07:34;;;;;;;;;;;;;;;;;;4990772;28;19912;-66
2022/04/23 00:10:00;;;;;;;;;;;;;;;;;;4976538;28;19928;-65
2022/04/23 00:12:26;;;;;;;;;;;;;;;;;;4992566;28;20557;-66
2022/04/23 00:14:53;;;;;;;;;;;;;;;;;;4993957;28;20463;-66
2022/04/23 00:17:19;;;;;;;;;;;;;;;;;;4993328;28;19913;-65
2022/04/23 00:19:47;;;;;;;;;;;;;;;;;;4992063;28;19919;-66
2022/04/23 00:22:13;;;;;;;;;;;;;;;;;;4982315;28;20012;-66
2022/04/23 00:24:39;;;;;;;;;;;;;;;;;;4996219;28;19972;-66
2022/04/23 00:27:05;;;;;;;;;;;;;;;;;;4995444;28;19917;-66
2022/04/23 00:29:31;;;;;;;;;;;;;;;;;;4976044;28;19988;-65
2022/04/23 00:31:56;;;;;;;;;;;;;;;;;;4996860;28;20343;-66
2022/04/23 00:34:22;;;;;;;;;;;;;;;;;;4993110;28;19920;-66
2022/04/23 00:36:48;;;;;;;;;;;;;;;;;;5002691;28;20015;-66
2022/04/23 00:39:14;;;;;;;;;;;;;;;;;;4980841;28;20339;-69
2022/04/23 00:41:45;;;;;;;;;;;;;;;;;;5004092;28;19909;-69
2022/04/23 00:44:11;;;;;;;;;;;;;;;;;;5001381;28;19913;-69
2022/04/23 00:46:37;;;;;;;;;;;;;;;;;;4973124;28;19986;-69
2022/04/23 00:49:03;;;;;;;;;;;;;;;;;;4996236;28;19912;-69
2022/04/23 00:51:29;;;;;;;;;;;;;;;;;;4998667;28;19923;-69
2022/04/23 00:53:55;;;;;;;;;;;;;;;;;;5001168;28;19912;-68
2022/04/23 00:56:21;;;;;;;;;;;;;;;;;;4993503;28;19921;-68
2022/04/23 00:58:47;;;;;;;;;;;;;;;;;;5000647;28;20672;-68
2022/04/23 01:01:14;;;;;;;;;;;;;;;;;;4997682;28;19917;-68
2022/04/23 01:03:42;;;;;;;;;;;;;;;;;;4984551;28;19917;-69
2022/04/23 01:06:10;;;;;;;;;;;;;;;;;;4978573;28;19919;-69
2022/04/23 01:08:36;;;;;;;;;;;;;;;;;;4988802;28;20200;-69
2022/04/23 01:11:02;;;;;;;;;;;;;;;;;;4997737;28;19935;-69
2022/04/23 01:13:28;;;;;;;;;;;;;;;;;;4998375;28;19913;-69
2022/04/23 01:15:54;;;;;;;;;;;;;;;;;;4998973;28;19971;-69
2022/04/23 01:18:26;;;;;;;;;;;;;;;;;;4997451;28;19913;-69
2022/04/23 01:20:52;;;;;;;;;;;;;;;;;;5003266;28;20359;-69
2022/04/23 01:23:18;;;;;;;;;;;;;;;;;;4995238;28;20644;-69
2022/04/23 01:25:45;;;;;;;;;;;;;;;;;;4981820;28;19912;-69
2022/04/23 01:28:11;;;;;;;;;;;;;;;;;;5002274;28;19912;-68
2022/04/23 01:30:37;;;;;;;;;;;;;;;;;;5004304;28;19924;-68
2022/04/23 01:33:03;;;;;;;;;;;;;;;;;;4999256;28;20249;-68
2022/04/23 01:35:31;;;;;;;;;;;;;;;;;;5001636;28;19913;-69
2022/04/23 01:37:57;;;;;;;;;;;;;;;;;;5004199;28;20397;-69
2022/04/23 01:40:23;;;;;;;;;;;;;;;;;;5000171;28;19917;-70
2022/04/23 01:42:49;;;;;;;;;;;;;;;;;;5000583;28;19952;-70
2022/04/23 01:45:15;;;;;;;;;;;;;;;;;;4981577;28;19913;-68
2022/04/23 01:47:41;;;;;;;;;;;;;;;;;;4997206;28;19913;-68
2022/04/23 01:50:08;;;;;;;;;;;;;;;;;;5007539;28;19955;-68
2022/04/23 01:52:33;;;;;;;;;;;;;;;;;;4980350;28;20130;-69
2022/04/23 01:54:59;;;;;;;;;;;;;;;;;;5001024;28;19998;-70
2022/04/23 01:57:25;;;;;;;;;;;;;;;;;;5001500;28;20055;-69
2022/04/23 01:59:51;;;;;;;;;;;;;;;;;;5007198;28;19983;-70
2022/04/23 02:02:17;;;;;;;;;;;;;;;;;;5001747;28;19999;-70
2022/04/23 02:04:43;;;;;;;;;;;;;;;;;;5003757;28;20467;-69
2022/04/23 02:07:09;;;;;;;;;;;;;;;;;;4982596;28;19917;-69
2022/04/23 02:09:35;;;;;;;;;;;;;;;;;;4994272;28;19924;-69
2022/04/23 02:12:01;;;;;;;;;;;;;;;;;;5010768;28;20673;-69
2022/04/23 02:14:28;;;;;;;;;;;;;;;;;;5002544;28;19912;-69
2022/04/23 02:16:54;;;;;;;;;;;;;;;;;;4987577;28;19972;-69
2022/04/23 02:19:22;;;;;;;;;;;;;;;;;;5004474;28;20434;-69
2022/04/23 02:21:47;;;;;;;;;;;;;;;;;;5008857;28;19983;-69
2022/04/23 02:24:15;;;;;;;;;;;;;;;;;;4983005;28;20383;-71
2022/04/23 02:26:41;;;;;;;;;;;;;;;;;;5005835;28;20292;-70
2022/04/23 02:29:07;;;;;;;;;;;;;;;;;;4990372;28;19913;-70
2022/04/23 02:31:33;;;;;;;;;;;;;;;;;;5003060;28;20680;-68
2022/04/23 02:33:59;;;;;;;;;;;;;;;;;;5006493;28;20271;-68
2022/04/23 02:36:25;;;;;;;;;;;;;;;;;;5002452;28;20500;-68
2022/04/23 02:38:51;;;;;;;;;;;;;;;;;;4991097;28;19912;-68
2022/04/23 02:41:18;;;;;;;;;;;;;;;;;;4986190;28;19913;-68
2022/04/23 02:43:45;;;;;;;;;;;;;;;;;;4984114;28;20347;-69
2022/04/23 02:46:15;;;;;;;;;;;;;;;;;;5008909;28;19917;-69
2022/04/23 02:48:41;;;;;;;;;;;;;;;;;;5001180;28;19913;-68
2022/04/23 02:51:07;;;;;;;;;;;;;;;;;;5009743;28;20330;-69
2022/04/23 02:53:34;;;;;;;;;;;;;;;;;;5001804;28;19953;-70
2022/04/23 02:56:02;;;;;;;;;;;;;;;;;;5002284;28;19948;-70
2022/04/23 02:58:28;;;;;;;;;;;;;;;;;;4994165;28;20020;-69
2022/04/23 03:00:54;;;;;;;;;;;;;;;;;;5004364;28;20027;-71
2022/04/23 03:03:20;;;;;;;;;;;;;;;;;;4983621;28;20410;-68
2022/04/23 03:05:46;;;;;;;;;;;;;;;;;;4984686;28;19916;-70
2022/04/23 03:08:12;;;;;;;;;;;;;;;;;;5005976;28;20381;-68
2022/04/23 03:10:41;;;;;;;;;;;;;;;;;;4985176;28;20004;-69
2022/04/23 03:13:08;;;;;;;;;;;;;;;;;;4980059;28;20039;-68
2022/04/23 03:15:34;;;;;;;;;;;;;;;;;;4972661;28;20295;-68
2022/04/23 03:18:01;;;;;;;;;;;;;;;;;;4997780;28;19912;-68
2022/04/23 03:20:27;;;;;;;;;;;;;;;;;;4979953;28;20683;-70
2022/04/23 03:22:53;;;;;;;;;;;;;;;;;;5002042;28;19913;-69
2022/04/23 03:25:18;;;;;;;;;;;;;;;;;;4975315;28;19913;-69
2022/04/23 03:27:44;;;;;;;;;;;;;;;;;;4982527;28;19916;-69
2022/04/23 03:30:10;;;;;;;;;;;;;;;;;;4978160;28;20273;-69
2022/04/23 03:32:36;;;;;;;;;;;;;;;;;;4995430;28;19916;-70
2022/04/23 03:35:04;;;;;;;;;;;;;;;;;;4998931;28;19916;-68
2022/04/23 03:37:30;;;;;;;;;;;;;;;;;;4996753;28;19913;-68
2022/04/23 03:39:56;;;;;;;;;;;;;;;;;;5000599;28;20261;-69
2022/04/23 03:42:22;;;;;;;;;;;;;;;;;;4969493;28;19913;-68
2022/04/23 03:44:49;;;;;;;;;;;;;;;;;;4984351;28;19982;-68
2022/04/23 03:47:15;;;;;;;;;;;;;;;;;;4977490;28;19947;-69
2022/04/23 03:49:41;;;;;;;;;;;;;;;;;;4994991;28;19931;-68
2022/04/23 03:52:10;;;;;;;;;;;;;;;;;;4994155;28;20477;-68
2022/04/23 03:54:36;;;;;;;;;;;;;;;;;;4992784;28;19936;-70
2022/04/23 03:57:02;;;;;;;;;;;;;;;;;;4981774;28;20776;-69
2022/04/23 03:59:30;;;;;;;;;;;;;;;;;;4991226;28;19913;-70
2022/04/23 04:01:56;;;;;;;;;;;;;;;;;;4994641;28;20044;-69
2022/04/23 04:04:22;;;;;;;;;;;;;;;;;;4995305;28;19929;-68
2022/04/23 04:06:48;;;;;;;;;;;;;;;;;;4994263;28;20024;-69
2022/04/23 04:09:14;;;;;;;;;;;;;;;;;;4986278;28;20040;-68
2022/04/23 04:14:25;;;;;;;;;;;;;;;;;;4993135;28;19972;-68
2022/04/23 04:16:51;;;;;;;;;;;;;;;;;;4978005;28;19913;-69
2022/04/23 04:19:17;;;;;;;;;;;;;;;;;;4992425;28;19913;-68
2022/04/23 04:21:43;;;;;;;;;;;;;;;;;;4995983;28;19921;-68
2022/04/23 04:24:09;;;;;;;;;;;;;;;;;;4998419;28;20383;-68
2022/04/23 04:26:35;;;;;;;;;;;;;;;;;;4990798;28;19913;-68
2022/04/23 04:29:01;;;;;;;;;;;;;;;;;;4995409;28;19983;-69
2022/04/23 04:34:12;;;;;;;;;;;;;;;;;;4996603;28;19919;-68
2022/04/23 04:36:38;;;;;;;;;;;;;;;;;;4997957;28;20457;-69
2022/04/23 04:39:04;;;;;;;;;;;;;;;;;;4977696;28;20601;-68
2022/04/23 04:41:31;;;;;;;;;;;;;;;;;;4979114;28;20256;-69
2022/04/23 04:43:57;;;;;;;;;;;;;;;;;;4992131;28;19982;-69
2022/04/23 04:46:23;;;;;;;;;;;;;;;;;;4995843;28;20450;-68
2022/04/23 04:48:49;;;;;;;;;;;;;;;;;;4985118;28;19920;-68
2022/04/23 04:51:15;;;;;;;;;;;;;;;;;;4994520;28;19939;-70
2022/04/23 04:53:41;;;;;;;;;;;;;;;;;;4996992;28;19913;-70
2022/04/23 04:56:07;;;;;;;;;;;;;;;;;;4997805;28;20295;-68
2022/04/23 04:58:33;;;;;;;;;;;;;;;;;;4994206;28;20519;-69
2022/04/23 05:00:59;;;;;;;;;;;;;;;;;;4997273;28;19999;-69
2022/04/23 05:03:25;;;;;;;;;;;;;;;;;;4998599;28;20047;-68
2022/04/23 05:05:51;;;;;;;;;;;;;;;;;;4989858;28;19912;-68
2022/04/23 05:08:17;;;;;;;;;;;;;;;;;;4988717;28;19913;-69
2022/04/23 05:10:43;;;;;;;;;;;;;;;;;;4997493;28;19932;-68
2022/04/23 05:13:09;;;;;;;;;;;;;;;;;;5003007;28;19962;-68
2022/04/23 05:15:37;;;;;;;;;;;;;;;;;;4974422;28;19991;-69
2022/04/23 05:18:03;;;;;;;;;;;;;;;;;;5000488;28;20284;-69
2022/04/23 05:20:29;;;;;;;;;;;;;;;;;;4976667;28;20419;-71
2022/04/23 05:22:55;;;;;;;;;;;;;;;;;;4976623;28;19963;-69
2022/04/23 05:25:21;;;;;;;;;;;;;;;;;;4978999;28;20348;-69
2022/04/23 05:27:47;;;;;;;;;;;;;;;;;;4997269;28;20411;-69
2022/04/23 05:30:13;;;;;;;;;;;;;;;;;;4990956;28;19920;-69
2022/04/23 05:32:39;;;;;;;;;;;;;;;;;;5000788;28;20299;-69
2022/04/23 05:35:05;;;;;;;;;;;;;;;;;;4997395;28;20481;-68
2022/04/23 05:37:31;;;;;;;;;;;;;;;;;;4992897;28;19920;-69
2022/04/23 05:39:57;;;;;;;;;;;;;;;;;;4985845;28;20369;-68
2022/04/23 05:42:23;;;;;;;;;;;;;;;;;;4992860;28;19949;-68
2022/04/23 05:44:49;;;;;;;;;;;;;;;;;;4996237;28;19968;-69
2022/04/23 05:47:14;;;;;;;;;;;;;;;;;;4996297;28;19948;-68
2022/04/23 05:49:40;;;;;;;;;;;;;;;;;;4995826;28;19913;-70
2022/04/23 05:52:06;;;;;;;;;;;;;;;;;;5000807;28;19920;-70
2022/04/23 05:54:32;;;;;;;;;;;;;;;;;;4992088;28;20020;-70
2022/04/23 05:56:58;;;;;;;;;;;;;;;;;;5000425;28;20030;-69
2022/04/23 05:59:28;;;;;;;;;;;;;;;;;;4992604;28;20305;-69
2022/04/23 06:01:55;;;;;;;;;;;;;;;;;;4983852;28;20257;-70
2022/04/23 06:04:22;;;;;;;;;;;;;;;;;;4987404;28;20435;-69
2022/04/23 06:06:48;;;;;;;;;;;;;;;;;;4983445;28;20235;-69
2022/04/23 06:09:14;;;;;;;;;;;;;;;;;;4976918;28;19917;-69
2022/04/23 06:11:40;;;;;;;;;;;;;;;;;;4975602;28;19996;-69
2022/04/23 06:14:06;;;;;;;;;;;;;;;;;;4997427;28;19916;-69
2022/04/23 06:16:32;;;;;;;;;;;;;;;;;;4985740;28;20413;-70
2022/04/23 06:18:58;;;;;;;;;;;;;;;;;;4979680;28;20010;-68
2022/04/23 06:21:24;;;;;;;;;;;;;;;;;;4999715;28;20379;-71
2022/04/23 06:23:50;;;;;;;;;;;;;;;;;;4985390;28;20767;-70
2022/04/23 06:26:16;;;;;;;;;;;;;;;;;;4995744;28;20343;-69
2022/04/23 06:28:41;;;;;;;;;;;;;;;;;;5002370;28;19912;-69
2022/04/23 06:31:07;;;;;;;;;;;;;;;;;;4982224;28;20150;-69
2022/04/23 06:33:33;;;;;;;;;;;;;;;;;;4997450;28;19917;-69
2022/04/23 06:35:59;;;;;;;;;;;;;;;;;;5005459;28;19917;-69
2022/04/23 06:38:25;;;;;;;;;;;;;;;;;;4998981;28;19912;-71
2022/04/23 06:40:51;;;;;;;;;;;;;;;;;;5002385;28;19917;-70
2022/04/23 06:43:17;;;;;;;;;;;;;;;;;;4981352;28;19972;-70
2022/04/23 06:45:43;;;;;;;;;;;;;;;;;;4995327;28;19913;-70
2022/04/23 06:48:09;;;;;;;;;;;;;;;;;;5002400;28;20192;-69
2022/04/23 06:50:36;;;;;;;;;;;;;;;;;;5002073;28;20198;-69
2022/04/23 06:53:02;;;;;;;;;;;;;;;;;;5005295;28;20205;-69
2022/04/23 06:55:28;;;;;;;;;;;;;;;;;;5003983;28;19913;-70
2022/04/23 06:57:54;;;;;;;;;;;;;;;;;;5002937;28;20810;-69
2022/04/23 07:00:23;;;;;;;;;;;;;;;;;;4999074;28;19913;-69
2022/04/23 07:02:50;;;;;;;;;;;;;;;;;;4986702;28;19917;-70
2022/04/23 07:05:16;;;;;;;;;;;;;;;;;;4989509;28;19913;-68
2022/04/23 07:07:42;;;;;;;;;;;;;;;;;;4999244;28;19918;-68
2022/04/23 07:10:08;;;;;;;;;;;;;;;;;;5003425;28;19921;-68
2022/04/23 07:12:34;;;;;;;;;;;;;;;;;;4994657;28;19932;-68
2022/04/23 07:15:00;;;;;;;;;;;;;;;;;;5005307;28;19924;-69
2022/04/23 07:17:26;;;;;;;;;;;;;;;;;;5005276;28;20051;-70
2022/04/23 07:19:55;;;;;;;;;;;;;;;;;;4999789;28;19967;-70
2022/04/23 07:22:21;;;;;;;;;;;;;;;;;;5006389;28;20279;-70
2022/04/23 07:24:51;;;;;;;;;;;;;;;;;;4981670;28;19917;-69
2022/04/23 07:27:17;;;;;;;;;;;;;;;;;;4978841;28;20117;-69
2022/04/23 07:29:43;;;;;;;;;;;;;;;;;;5006575;28;19919;-69
2022/04/23 07:32:09;;;;;;;;;;;;;;;;;;5003956;28;19983;-69
2022/04/23 07:37:29;;;;;;;;;;;;;;;;;;4986462;28;20513;-70
2022/04/23 07:39:55;;;;;;;;;;;;;;;;;;5003145;28;20359;-70
2022/04/23 07:42:22;;;;;;;;;;;;;;;;;;4998389;28;20527;-69
2022/04/23 07:44:48;;;;;;;;;;;;;;;;;;4997483;28;19913;-69
2022/04/23 07:47:13;;;;;;;;;;;;;;;;;;4981623;28;20327;-70
2022/04/23 07:49:39;;;;;;;;;;;;;;;;;;5001920;28;19917;-71
2022/04/23 07:52:05;;;;;;;;;;;;;;;;;;4981759;28;19940;-70
2022/04/23 07:54:31;;;;;;;;;;;;;;;;;;4996164;28;19999;-70
2022/04/23 07:56:58;;;;;;;;;;;;;;;;;;4990177;28;20003;-69
2022/04/23 07:59:24;;;;;;;;;;;;;;;;;;4986641;28;19948;-69
2022/04/23 08:01:51;;;;;;;;;;;;;;;;;;4987791;28;19917;-70
2022/04/23 08:04:17;;;;;;;;;;;;;;;;;;5001187;28;19923;-71
2022/04/23 08:06:43;;;;;;;;;;;;;;;;;;5008641;28;19912;-69
2022/04/23 08:09:09;;;;;;;;;;;;;;;;;;4987192;28;20351;-69
2022/04/23 08:11:34;;;;;;;;;;;;;;;;;;5003070;28;20015;-68
2022/04/23 08:14:02;;;;;;;;;;;;;;;;;;5007764;28;19924;-70
2022/04/23 08:16:28;;;;;;;;;;;;;;;;;;4999617;28;20324;-71
2022/04/23 08:18:54;;;;;;;;;;;;;;;;;;4978298;28;20557;-71
2022/04/23 08:21:20;;;;;;;;;;;;;;;;;;4998444;28;19919;-69
2022/04/23 08:23:46;;;;;;;;;;;;;;;;;;5003424;28;19916;-69
2022/04/23 08:26:12;;;;;;;;;;;;;;;;;;5008361;28;19979;-69
2022/04/23 08:31:22;;;;;;;;;;;;;;;;;;5004718;28;19985;-71
2022/04/23 08:33:58;;;;;;;;;;;;;;;;;;4981695;28;20389;-71
2022/04/23 08:36:24;;;;;;;;;;;;;;;;;;4996099;28;19943;-70
2022/04/23 08:38:51;;;;;;;;;;;;;;;;;;4986054;28;19949;-71
2022/04/23 08:41:17;;;;;;;;;;;;;;;;;;4982029;28;19944;-71
2022/04/23 08:43:43;;;;;;;;;;;;;;;;;;4999349;28;19913;-71
2022/04/23 08:46:09;;;;;;;;;;;;;;;;;;5001144;28;20367;-72
2022/04/23 08:48:35;;;;;;;;;;;;;;;;;;4985630;28;19920;-71
2022/04/23 08:51:01;;;;;;;;;;;;;;;;;;5010850;28;19923;-71
2022/04/23 08:53:27;;;;;;;;;;;;;;;;;;5006777;28;20277;-70
2022/04/23 08:55:53;;;;;;;;;;;;;;;;;;5006797;28;19916;-71
2022/04/23 08:58:19;;;;;;;;;;;;;;;;;;4999390;28;19970;-71
2022/04/23 09:00:45;;;;;;;;;;;;;;;;;;4988199;28;19920;-71
2022/04/23 09:03:11;;;;;;;;;;;;;;;;;;4984155;28;20097;-70
2022/04/23 09:05:37;;;;;;;;;;;;;;;;;;4997212;28;20427;-70
2022/04/23 09:08:03;;;;;;;;;;;;;;;;;;4996027;28;20145;-71
2022/04/23 09:10:29;;;;;;;;;;;;;;;;;;4972772;28;20292;-70
2022/04/23 09:12:56;;;;;;;;;;;;;;;;;;4982402;28;19956;-70
2022/04/23 09:23:39;;;;;;;;;;;;;;;;;;4984834;28;20008;-69
2022/04/23 09:26:05;;;;;;;;;;;;;;;;;;4990633;28;20116;-71
2022/04/23 09:28:31;;;;;;;;;;;;;;;;;;4987809;28;19913;-70
2022/04/23 09:30:59;;;;;;;;;;;;;;;;;;4986713;28;20277;-71
2022/04/23 09:33:28;;;;;;;;;;;;;;;;;;4964494;28;19920;-71
2022/04/23 09:35:54;;;;;;;;;;;;;;;;;;4986625;28;19921;-71
2022/04/23 09:38:20;;;;;;;;;;;;;;;;;;4989150;28;19920;-71
2022/04/23 09:40:46;;;;;;;;;;;;;;;;;;4970925;28;19913;-71
2022/04/23 09:43:12;;;;;;;;;;;;;;;;;;4986787;28;20351;-71
2022/04/23 09:45:44;;;;;;;;;;;;;;;;;;4958645;28;19967;-71
2022/04/23 09:48:10;;;;;;;;;;;;;;;;;;4985447;28;20403;-73
2022/04/23 09:50:36;;;;;;;;;;;;;;;;;;4973957;28;19971;-74
2022/04/23 09:53:02;;;;;;;;;;;;;;;;;;4973143;28;19917;-72
2022/04/23 09:55:28;;;;;;;;;;;;;;;;;;4988147;28;19920;-71
2022/04/23 09:57:54;;;;;;;;;;;;;;;;;;4993459;28;20726;-71
2022/04/23 10:00:20;;;;;;;;;;;;;;;;;;4954531;28;19920;-72
2022/04/23 10:02:46;;;;;;;;;;;;;;;;;;4982360;28;19913;-71
2022/04/23 10:05:12;;;;;;;;;;;;;;;;;;4984169;28;20225;-72
2022/04/23 10:07:38;;;;;;;;;;;;;;;;;;4952419;28;20379;-72
2022/04/23 10:10:05;;;;;;;;;;;;;;;;;;4949201;28;21279;-73
2022/04/23 10:12:30;;;;;;;;;;;;;;;;;;4999761;28;19921;-73
2022/04/23 10:14:56;;;;;;;;;;;;;;;;;;5006535;28;19936;-73
2022/04/23 10:17:22;;;;;;;;;;;;;;;;;;4985812;28;19935;-73
2022/04/23 10:19:48;;;;;;;;;;;;;;;;;;4986344;28;20459;-73
2022/04/23 10:22:14;;;;;;;;;;;;;;;;;;4987925;28;19983;-73
2022/04/23 10:24:41;;;;;;;;;;;;;;;;;;5010937;28;20670;-72
2022/04/23 10:27:09;;;;;;;;;;;;;;;;;;4993938;28;20325;-71
2022/04/23 10:29:35;;;;;;;;;;;;;;;;;;4992052;28;19996;-71
2022/04/23 10:32:01;;;;;;;;;;;;;;;;;;5016032;28;20479;-71
2022/04/23 10:34:27;;;;;;;;;;;;;;;;;;5006007;28;20580;-71
2022/04/23 10:36:53;;;;;;;;;;;;;;;;;;5008258;28;20387;-71
2022/04/23 10:39:19;;;;;;;;;;;;;;;;;;5004361;28;19924;-72
2022/04/23 10:41:45;;;;;;;;;;;;;;;;;;5009939;28;19919;-73
2022/04/23 10:44:12;;;;;;;;;;;;;;;;;;4994714;28;19921;-70
2022/04/23 10:46:42;;;;;;;;;;;;;;;;;;4951663;28;19912;-71
2022/04/23 10:49:08;;;;;;;;;;;;;;;;;;4956169;28;19913;-72
2022/04/23 10:51:34;;;;;;;;;;;;;;;;;;4950200;28;19944;-72
2022/04/23 10:54:01;;;;;;;;;;;;;;;;;;4971270;28;19913;-72
2022/04/23 10:56:27;;;;;;;;;;;;;;;;;;4998101;28;20591;-73
2022/04/23 10:58:53;;;;;;;;;;;;;;;;;;4995316;28;20256;-72
2022/04/23 11:01:22;;;;;;;;;;;;;;;;;;5002839;28;19916;-72
2022/04/23 11:03:48;;;;;;;;;;;;;;;;;;4999302;28;19913;-72
2022/04/23 11:14:44;;;;;;;;;;;;;;;;;;4917999;28;19914;-72
2022/04/23 11:17:10;;;;;;;;;;;;;;;;;;4919403;28;21794;-72
2022/04/23 11:19:36;;;;;;;;;;;;;;;;;;4912499;28;19921;-71
2022/04/23 11:22:02;;;;;;;;;;;;;;;;;;4918982;28;20022;-71
2022/04/23 11:24:28;;;;;;;;;;;;;;;;;;4915962;28;20012;-71
2022/04/23 11:26:55;;;;;;;;;;;;;;;;;;4918291;28;20535;-72
2022/04/23 11:29:24;;;;;;;;;;;;;;;;;;4913404;28;20391;-69
2022/04/23 11:31:51;;;;;;;;;;;;;;;;;;4905760;28;20060;-70
2022/04/23 11:34:17;;;;;;;;;;;;;;;;;;4913526;28;19922;-70
2022/04/23 11:36:43;;;;;;;;;;;;;;;;;;4918087;28;20456;-70
2022/04/23 11:39:09;;;;;;;;;;;;;;;;;;4915285;28;19925;-69
2022/04/23 11:41:35;;;;;;;;;;;;;;;;;;4914243;28;19953;-72
2022/04/23 11:44:01;;;;;;;;;;;;;;;;;;4916488;28;19965;-72
2022/04/23 11:46:27;;;;;;;;;;;;;;;;;;4911670;28;20476;-71
2022/04/23 11:48:53;;;;;;;;;;;;;;;;;;4899567;28;19922;-70
2022/04/23 11:51:20;;;;;;;;;;;;;;;;;;4987834;28;19960;-71
2022/04/23 11:53:46;;;;;;;;;;;;;;;;;;5004082;28;19917;-72
2022/04/23 11:56:12;;;;;;;;;;;;;;;;;;4986178;28;19939;-72
2022/04/23 11:58:38;;;;;;;;;;;;;;;;;;4996944;28;20360;-70
2022/04/23 12:01:04;;;;;;;;;;;;;;;;;;4986010;28;19919;-70
2022/04/23 12:03:30;;;;;;;;;;;;;;;;;;4975182;28;20248;-71
2022/04/23 12:05:56;;;;;;;;;;;;;;;;;;5000636;28;20366;-71
2022/04/23 12:08:22;;;;;;;;;;;;;;;;;;4993607;28;19931;-71
2022/04/23 12:10:48;;;;;;;;;;;;;;;;;;4992208;28;20060;-70
2022/04/23 12:13:14;;;;;;;;;;;;;;;;;;4974293;28;19913;-72
2022/04/23 12:15:40;;;;;;;;;;;;;;;;;;4994322;28;19921;-69
2022/04/23 12:18:06;;;;;;;;;;;;;;;;;;4998178;28;20291;-70
2022/04/23 12:20:33;;;;;;;;;;;;;;;;;;4993319;28;19917;-70
2022/04/23 12:22:59;;;;;;;;;;;;;;;;;;4979078;28;20003;-70
2022/04/23 12:25:25;;;;;;;;;;;;;;;;;;4995334;28;19913;-69
2022/04/23 12:27:51;;;;;;;;;;;;;;;;;;4999729;28;19919;-70
2022/04/23 12:41:16;;;;;;;;;;;;;;;;;;4998617;28;20024;-70
2022/04/23 12:43:42;;;;;;;;;;;;;;;;;;4998322;28;20435;-71
2022/04/23 12:46:08;;;;;;;;;;;;;;;;;;4999681;28;19987;-70
2022/04/23 12:48:34;;;;;;;;;;;;;;;;;;5000481;28;19917;-70
2022/04/23 12:51:00;;;;;;;;;;;;;;;;;;5006701;28;20343;-70
2022/04/23 12:53:26;;;;;;;;;;;;;;;;;;5002965;28;19917;-70
2022/04/23 12:55:52;;;;;;;;;;;;;;;;;;5003713;28;20376;-70
2022/04/23 12:58:18;;;;;;;;;;;;;;;;;;5003173;28;19950;-72
2022/04/23 13:00:45;;;;;;;;;;;;;;;;;;5007983;28;19917;-72
2022/04/23 13:03:16;;;;;;;;;;;;;;;;;;4980004;28;19913;-73
2022/04/23 13:05:42;;;;;;;;;;;;;;;;;;4998644;28;19920;-72
2022/04/23 13:10:52;;;;;;;;;;;;;;;;;;5000782;28;20712;-71
2022/04/23 13:13:18;;;;;;;;;;;;;;;;;;4981236;28;20420;-71
2022/04/23 13:15:44;;;;;;;;;;;;;;;;;;4978405;28;19967;-71
2022/04/23 13:18:10;;;;;;;;;;;;;;;;;;5004485;28;20404;-72
2022/04/23 13:20:36;;;;;;;;;;;;;;;;;;4998712;28;19947;-70
2022/04/23 13:23:02;;;;;;;;;;;;;;;;;;5001016;28;19913;-70
2022/04/23 13:25:31;;;;;;;;;;;;;;;;;;4981465;28;19960;-69
2022/04/23 13:27:57;;;;;;;;;;;;;;;;;;5002610;28;19920;-69
2022/04/23 13:30:23;;;;;;;;;;;;;;;;;;5002511;28;19959;-70
2022/04/23 13:32:49;;;;;;;;;;;;;;;;;;4987330;28;20602;-70
2022/04/23 13:35:15;;;;;;;;;;;;;;;;;;5000702;28;19917;-69
2022/04/23 13:37:42;;;;;;;;;;;;;;;;;;5008083;28;19939;-68
2022/04/23 13:40:07;;;;;;;;;;;;;;;;;;5006029;28;20485;-70
2022/04/23 13:42:34;;;;;;;;;;;;;;;;;;5004119;28;23221;-70
2022/04/23 13:45:00;;;;;;;;;;;;;;;;;;4999391;28;19912;-70
2022/04/23 13:47:26;;;;;;;;;;;;;;;;;;5000325;28;19913;-69
2022/04/23 13:49:52;;;;;;;;;;;;;;;;;;4986127;28;20046;-68
2022/04/23 13:52:17;;;;;;;;;;;;;;;;;;5000902;28;21154;-70
2022/04/23 13:57:21;;;;;;;;;;;;;;;;;;5224329;23;19925;-69
2022/04/23 13:59:47;;;;;;;;;;;;;;;;;;4976833;28;20456;-69
2022/04/23 14:10:27;;;;;;;;;;;;;;;;;;5004333;28;19919;-70
2022/04/23 14:12:53;;;;;;;;;;;;;;;;;;4992096;28;19920;-70
2022/04/23 14:15:19;;;;;;;;;;;;;;;;;;4990272;28;20368;-69
2022/04/23 14:17:45;;;;;;;;;;;;;;;;;;5004515;28;20388;-69
2022/04/23 14:20:11;;;;;;;;;;;;;;;;;;4998810;28;19913;-69
2022/04/23 14:22:37;;;;;;;;;;;;;;;;;;4999927;28;19952;-67
2022/04/23 14:25:08;;;;;;;;;;;;;;;;;;5009707;28;19940;-68
2022/04/23 14:27:35;;;;;;;;;;;;;;;;;;5004302;28;22565;-68
2022/04/23 14:30:01;;;;;;;;;;;;;;;;;;4990735;28;19912;-69
2022/04/23 14:32:27;;;;;;;;;;;;;;;;;;4988366;28;20035;-68
2022/04/23 14:34:53;;;;;;;;;;;;;;;;;;5007277;28;19912;-68
2022/04/23 14:37:19;;;;;;;;;;;;;;;;;;4982124;28;20341;-70
2022/04/23 14:39:45;;;;;;;;;;;;;;;;;;4984186;28;20344;-69
2022/04/23 14:42:13;;;;;;;;;;;;;;;;;;4977971;28;19940;-68
2022/04/23 14:44:40;;;;;;;;;;;;;;;;;;4982071;28;19913;-68
2022/04/23 14:47:07;;;;;;;;;;;;;;;;;;4984389;28;19919;-68
2022/04/23 14:49:33;;;;;;;;;;;;;;;;;;4998744;28;19913;-69
2022/04/23 14:54:45;;;;;;;;;;;;;;;;;;5006804;28;20281;-69
2022/04/23 14:57:11;;;;;;;;;;;;;;;;;;4986683;28;20240;-68
2022/04/23 14:59:38;;;;;;;;;;;;;;;;;;4983001;28;19956;-67
2022/04/23 15:02:04;;;;;;;;;;;;;;;;;;5007755;28;20515;-68
2022/04/23 15:04:31;;;;;;;;;;;;;;;;;;5002789;28;20290;-67
2022/04/23 15:06:58;;;;;;;;;;;;;;;;;;5009394;28;19917;-67
2022/04/23 15:09:24;;;;;;;;;;;;;;;;;;4979861;28;19916;-67
2022/04/23 15:11:50;;;;;;;;;;;;;;;;;;4941499;28;20359;-67
2022/04/23 15:14:16;;;;;;;;;;;;;;;;;;4996157;28;20695;-67
2022/04/23 15:16:42;;;;;;;;;;;;;;;;;;4991508;28;20018;-67
2022/04/23 15:19:08;;;;;;;;;;;;;;;;;;5009954;28;20216;-68
2022/04/23 15:21:34;;;;;;;;;;;;;;;;;;5006017;28;22364;-67
2022/04/23 15:24:00;;;;;;;;;;;;;;;;;;5008720;28;19939;-67
2022/04/23 15:26:26;;;;;;;;;;;;;;;;;;5005796;28;19917;-67
2022/04/23 15:28:52;;;;;;;;;;;;;;;;;;4990720;28;20646;-67
2022/04/23 15:31:18;;;;;;;;;;;;;;;;;;4989048;28;19924;-67
2022/04/23 15:33:44;;;;;;;;;;;;;;;;;;5010513;28;19913;-67
2022/04/23 15:36:11;;;;;;;;;;;;;;;;;;4990598;28;19924;-68
2022/04/23 15:38:37;;;;;;;;;;;;;;;;;;5013812;28;19940;-68
2022/04/23 15:41:03;;;;;;;;;;;;;;;;;;4989417;28;19916;-68
2022/04/23 15:43:29;;;;;;;;;;;;;;;;;;5011260;28;19913;-68
2022/04/23 15:45:57;;;;;;;;;;;;;;;;;;5001612;28;20704;-68
2022/04/23 15:48:23;;;;;;;;;;;;;;;;;;5011121;28;19920;-68
2022/04/23 15:50:50;;;;;;;;;;;;;;;;;;4998491;28;20011;-67
2022/04/23 15:53:16;;;;;;;;;;;;;;;;;;4989359;28;20468;-67
2022/04/23 15:55:42;;;;;;;;;;;;;;;;;;4991702;28;19928;-67
2022/04/23 15:58:08;;;;;;;;;;;;;;;;;;4992100;28;20475;-68
2022/04/23 16:00:34;;;;;;;;;;;;;;;;;;5006298;28;20595;-68
2022/04/23 16:05:46;;;;;;;;;;;;;;;;;;5010256;28;19919;-66
2022/04/23 16:08:12;;;;;;;;;;;;;;;;;;4987001;28;19917;-66
2022/04/23 16:10:38;;;;;;;;;;;;;;;;;;5007533;28;20007;-66
2022/04/23 16:13:04;;;;;;;;;;;;;;;;;;4985329;28;20445;-66
2022/04/23 16:15:30;;;;;;;;;;;;;;;;;;5014875;28;20368;-67
2022/04/23 16:17:59;;;;;;;;;;;;;;;;;;5001032;28;20396;-66
2022/04/23 16:20:25;;;;;;;;;;;;;;;;;;4995203;28;20422;-65
2022/04/23 16:22:51;;;;;;;;;;;;;;;;;;5011601;28;20854;-66
2022/04/23 16:25:17;;;;;;;;;;;;;;;;;;5006914;28;19917;-66
2022/04/23 16:27:43;;;;;;;;;;;;;;;;;;4991166;28;20284;-67
2022/04/23 16:30:09;;;;;;;;;;;;;;;;;;5015075;28;19913;-67
2022/04/23 16:32:35;;;;;;;;;;;;;;;;;;4988011;28;21616;-67
2022/04/23 16:35:01;;;;;;;;;;;;;;;;;;5005535;28;19913;-66
2022/04/23 16:48:43;;;;;;;;;;;;;;;;;;4958943;28;19997;-67
2022/04/23 16:51:09;;;;;;;;;;;;;;;;;;4948636;28;19913;-66
2022/04/23 16:53:35;;;;;;;;;;;;;;;;;;4946631;28;19944;-66
2022/04/23 16:56:01;;;;;;;;;;;;;;;;;;4940699;28;19949;-66
2022/04/23 16:58:27;;;;;;;;;;;;;;;;;;4956244;28;20072;-67
2022/04/23 17:00:53;;;;;;;;;;;;;;;;;;4948798;28;19960;-67
2022/04/23 17:03:19;;;;;;;;;;;;;;;;;;4955136;28;19996;-66
2022/04/23 17:05:54;;;;;;;;;;;;;;;;;;4945980;28;19920;-68
2022/04/23 17:08:20;;;;;;;;;;;;;;;;;;4945981;28;19949;-66
2022/04/23 17:10:46;;;;;;;;;;;;;;;;;;4946869;28;20343;-66
2022/04/23 17:13:12;;;;;;;;;;;;;;;;;;4945776;28;20198;-66
2022/04/23 17:15:38;;;;;;;;;;;;;;;;;;4944333;28;19921;-66
2022/04/23 17:18:04;;;;;;;;;;;;;;;;;;4957737;28;20364;-67
2022/04/23 17:20:30;;;;;;;;;;;;;;;;;;4993775;28;19963;-67
2022/04/23 17:22:59;;;;;;;;;;;;;;;;;;5009623;28;20299;-67
2022/04/23 17:25:25;;;;;;;;;;;;;;;;;;5011187;28;20084;-67
2022/04/23 17:27:52;;;;;;;;;;;;;;;;;;4998728;28;19913;-68
2022/04/23 17:30:18;;;;;;;;;;;;;;;;;;5010044;28;20210;-67
2022/04/23 17:32:44;;;;;;;;;;;;;;;;;;4995629;28;20292;-68
2022/04/23 17:35:10;;;;;;;;;;;;;;;;;;5015787;28;19992;-68
2022/04/23 17:37:36;;;;;;;;;;;;;;;;;;4991053;28;20440;-66
2022/04/23 17:40:02;;;;;;;;;;;;;;;;;;5015606;28;19938;-67
2022/04/23 17:42:28;;;;;;;;;;;;;;;;;;5005199;28;19924;-67
2022/04/23 17:44:54;;;;;;;;;;;;;;;;;;4993654;28;19963;-67
2022/04/23 17:47:20;;;;;;;;;;;;;;;;;;4995407;28;19917;-67